createdAt,value
2018-08-31T00:00:26.502Z,82.23
2018-08-31T00:01:07.082Z,83.09
2018-08-31T00:01:47.642Z,82.23
2018-08-31T00:02:28.227Z,82.23
2018-08-31T00:03:08.788Z,82.42
2018-08-31T00:03:49.351Z,81.95
2018-08-31T00:04:29.911Z,82.04
2018-08-31T00:05:10.486Z,82.23
2018-08-31T00:05:51.039Z,82.81
2018-08-31T00:06:31.603Z,82.71
2018-08-31T00:07:12.171Z,82.62
2018-08-31T00:07:52.724Z,83
2018-08-31T00:08:33.284Z,83.19
2018-08-31T00:09:13.854Z,82.81
2018-08-31T00:09:54.424Z,82.81
2018-08-31T00:10:34.982Z,82.71
2018-08-31T00:11:15.568Z,82.9
2018-08-31T00:11:56.110Z,83
2018-08-31T00:12:36.676Z,83.19
2018-08-31T00:13:17.249Z,83.09
2018-08-31T00:13:57.802Z,83
2018-08-31T00:14:38.372Z,83.29
2018-08-31T00:15:18.933Z,82.71
2018-08-31T00:15:59.487Z,83.29
2018-08-31T00:16:40.043Z,83.48
2018-08-31T00:17:20.659Z,82.9
2018-08-31T00:18:01.220Z,82.52
2018-08-31T00:18:41.875Z,82.9
2018-08-31T00:19:22.446Z,83
2018-08-31T00:20:03.050Z,82.9
2018-08-31T00:20:43.627Z,82.9
2018-08-31T00:21:24.255Z,82.9
2018-08-31T00:22:04.799Z,82.9
2018-08-31T00:22:45.366Z,82.71
2018-08-31T00:23:25.925Z,83
2018-08-31T00:24:06.483Z,82.48
2018-08-31T00:24:47.050Z,82.19
2018-08-31T00:25:27.602Z,81.81
2018-08-31T00:26:08.208Z,82.38
2018-08-31T00:26:48.791Z,82.32
2018-08-31T00:27:29.357Z,82.19
2018-08-31T00:28:09.923Z,82.32
2018-08-31T00:28:50.545Z,82.42
2018-08-31T00:29:31.152Z,81.9
2018-08-31T00:30:11.727Z,81.56
2018-08-31T00:30:52.289Z,81.56
2018-08-31T00:31:32.860Z,81.71
2018-08-31T00:32:13.410Z,81.62
2018-08-31T00:32:54.128Z,81.04
2018-08-31T00:33:34.752Z,81.04
2018-08-31T00:34:15.307Z,81.43
2018-08-31T00:34:55.891Z,81.13
2018-08-31T00:35:36.477Z,82
2018-08-31T00:36:17.031Z,81.52
2018-08-31T00:36:57.587Z,81.81
2018-08-31T00:37:38.145Z,81.71
2018-08-31T00:38:18.712Z,81.52
2018-08-31T00:38:59.269Z,81.43
2018-08-31T00:39:39.850Z,81.13
2018-08-31T00:40:20.421Z,81.13
2018-08-31T00:41:00.994Z,81.62
2018-08-31T00:41:41.565Z,81.33
2018-08-31T00:42:22.126Z,81.33
2018-08-31T00:43:02.694Z,81.33
2018-08-31T00:43:43.250Z,81.33
2018-08-31T00:44:23.820Z,81.13
2018-08-31T00:45:04.370Z,81.13
2018-08-31T00:45:44.929Z,81.52
2018-08-31T00:46:25.482Z,81.43
2018-08-31T00:47:06.076Z,81.43
2018-08-31T00:47:46.635Z,82
2018-08-31T00:48:27.200Z,82
2018-08-31T00:49:07.809Z,82.19
2018-08-31T00:49:48.371Z,81.23
2018-08-31T00:50:28.941Z,81.23
2018-08-31T00:51:09.487Z,81.04
2018-08-31T00:51:50.043Z,80.85
2018-08-31T00:52:30.601Z,80.85
2018-08-31T00:53:11.169Z,80.76
2018-08-31T00:53:51.730Z,81.04
2018-08-31T00:54:32.294Z,81.52
2018-08-31T00:55:12.842Z,81.62
2018-08-31T00:55:53.399Z,81.43
2018-08-31T00:56:33.958Z,82.38
2018-08-31T00:57:14.540Z,81.9
2018-08-31T00:57:55.183Z,82.09
2018-08-31T00:58:35.663Z,82.29
2018-08-31T00:59:16.219Z,82.19
2018-08-31T00:59:56.808Z,82.48
2018-08-31T01:00:37.379Z,82
2018-08-31T01:01:17.929Z,82.38
2018-08-31T01:01:58.502Z,82.29
2018-08-31T01:02:39.064Z,82.38
2018-08-31T01:03:19.617Z,82.19
2018-08-31T01:04:00.174Z,81.81
2018-08-31T01:04:40.754Z,81.52
2018-08-31T01:05:21.385Z,82.19
2018-08-31T01:06:01.949Z,81.43
2018-08-31T01:06:42.518Z,81.04
2018-08-31T01:07:23.094Z,81.23
2018-08-31T01:08:03.653Z,81.52
2018-08-31T01:08:44.211Z,81.62
2018-08-31T01:09:24.775Z,81.52
2018-08-31T01:10:05.336Z,81.62
2018-08-31T01:10:45.900Z,81.71
2018-08-31T01:11:26.479Z,82.38
2018-08-31T01:12:07.028Z,82
2018-08-31T01:12:47.612Z,82.38
2018-08-31T01:13:28.164Z,82.15
2018-08-31T01:14:08.742Z,81.33
2018-08-31T01:14:49.328Z,81.48
2018-08-31T01:15:29.869Z,81.57
2018-08-31T01:16:10.429Z,81.38
2018-08-31T01:16:51.022Z,81.67
2018-08-31T01:17:31.584Z,82.24
2018-08-31T01:18:12.152Z,82.06
2018-08-31T01:18:52.727Z,82.15
2018-08-31T01:19:33.287Z,81.96
2018-08-31T01:20:13.855Z,82.15
2018-08-31T01:20:54.431Z,81.96
2018-08-31T01:21:35.010Z,82.06
2018-08-31T01:22:15.565Z,82.06
2018-08-31T01:22:56.133Z,81.77
2018-08-31T01:23:36.699Z,82.15
2018-08-31T01:24:17.259Z,82.43
2018-08-31T01:24:57.828Z,82.34
2018-08-31T01:25:38.393Z,81
2018-08-31T01:26:18.944Z,81.1
2018-08-31T01:26:59.510Z,81.57
2018-08-31T01:27:40.089Z,81.48
2018-08-31T01:28:20.642Z,81.1
2018-08-31T01:29:01.196Z,81.29
2018-08-31T01:29:41.766Z,82.34
2018-08-31T01:30:22.331Z,82.15
2018-08-31T01:31:02.905Z,81.67
2018-08-31T01:31:43.485Z,81.29
2018-08-31T01:32:24.043Z,81.96
2018-08-31T01:33:04.657Z,82.15
2018-08-31T01:33:45.200Z,82.15
2018-08-31T01:34:25.832Z,82.15
2018-08-31T01:35:06.743Z,82.15
2018-08-31T01:35:47.350Z,81.86
2018-08-31T01:36:27.916Z,81.48
2018-08-31T01:37:08.479Z,81.48
2018-08-31T01:37:49.036Z,81.38
2018-08-31T01:38:29.591Z,82.15
2018-08-31T01:39:10.169Z,82.15
2018-08-31T01:39:50.735Z,82.15
2018-08-31T01:40:31.295Z,82.15
2018-08-31T01:41:11.853Z,81.48
2018-08-31T01:41:52.421Z,81.86
2018-08-31T01:42:32.990Z,82.15
2018-08-31T01:43:13.554Z,81.38
2018-08-31T01:43:54.119Z,82.15
2018-08-31T01:44:34.678Z,81.48
2018-08-31T01:45:15.252Z,81.67
2018-08-31T01:45:55.818Z,81.48
2018-08-31T01:46:36.384Z,81.29
2018-08-31T01:47:16.935Z,81.1
2018-08-31T01:47:57.520Z,81.29
2018-08-31T01:48:38.089Z,81
2018-08-31T01:49:18.649Z,81.57
2018-08-31T01:49:59.222Z,81.29
2018-08-31T01:50:39.783Z,81.48
2018-08-31T01:51:20.388Z,81.38
2018-08-31T01:52:00.943Z,81.77
2018-08-31T01:52:41.554Z,81.57
2018-08-31T01:53:22.080Z,81.57
2018-08-31T01:54:02.651Z,81.77
2018-08-31T01:54:43.212Z,81.38
2018-08-31T01:55:23.818Z,81.38
2018-08-31T01:56:04.376Z,81.86
2018-08-31T01:56:44.965Z,81.48
2018-08-31T01:57:25.546Z,81.48
2018-08-31T01:58:06.128Z,81.2
2018-08-31T01:58:46.705Z,81.54
2018-08-31T01:59:27.269Z,81.77
2018-08-31T02:00:07.835Z,81.48
2018-08-31T02:00:48.400Z,81.48
2018-08-31T02:01:28.955Z,81.57
2018-08-31T02:02:09.519Z,81.96
2018-08-31T02:02:50.072Z,81.86
2018-08-31T02:03:30.659Z,81.96
2018-08-31T02:04:11.298Z,81.15
2018-08-31T02:04:51.789Z,81.29
2018-08-31T02:05:32.350Z,81.57
2018-08-31T02:06:12.912Z,81.48
2018-08-31T02:06:53.501Z,81.57
2018-08-31T02:07:34.075Z,81.57
2018-08-31T02:08:14.640Z,81.38
2018-08-31T02:08:55.216Z,81.77
2018-08-31T02:09:35.768Z,81.44
2018-08-31T02:10:16.331Z,81.82
2018-08-31T02:10:56.885Z,81.77
2018-08-31T02:11:37.447Z,81.96
2018-08-31T02:12:18.007Z,82.34
2018-08-31T02:12:58.570Z,82.34
2018-08-31T02:13:39.144Z,81.48
2018-08-31T02:14:19.719Z,81.92
2018-08-31T02:15:00.285Z,82.06
2018-08-31T02:15:40.844Z,82.43
2018-08-31T02:16:21.411Z,81.73
2018-08-31T02:17:01.987Z,81.73
2018-08-31T02:17:42.552Z,82.3
2018-08-31T02:18:23.122Z,82.43
2018-08-31T02:19:03.674Z,82.11
2018-08-31T02:19:44.246Z,82.15
2018-08-31T02:20:24.803Z,81.96
2018-08-31T02:21:05.381Z,82.06
2018-08-31T02:21:45.968Z,82.2
2018-08-31T02:22:26.556Z,82.15
2018-08-31T02:23:07.118Z,82.15
2018-08-31T02:23:47.688Z,82.2
2018-08-31T02:24:28.254Z,81.63
2018-08-31T02:25:08.811Z,81.82
2018-08-31T02:25:49.560Z,81.44
2018-08-31T02:26:30.129Z,81.82
2018-08-31T02:27:10.684Z,82.2
2018-08-31T02:27:51.234Z,82.3
2018-08-31T02:28:31.787Z,81.63
2018-08-31T02:29:12.348Z,82.4
2018-08-31T02:29:52.918Z,82.59
2018-08-31T02:30:33.502Z,82.01
2018-08-31T02:31:14.072Z,81.73
2018-08-31T02:31:54.673Z,82.11
2018-08-31T02:32:35.239Z,82.4
2018-08-31T02:33:15.803Z,82.2
2018-08-31T02:33:56.373Z,82.11
2018-08-31T02:34:36.940Z,82.11
2018-08-31T02:35:17.500Z,82.4
2018-08-31T02:35:58.088Z,81.63
2018-08-31T02:36:38.726Z,82.2
2018-08-31T02:37:19.328Z,81.92
2018-08-31T02:37:59.902Z,82.11
2018-08-31T02:38:40.527Z,82.01
2018-08-31T02:39:21.078Z,82.2
2018-08-31T02:40:01.634Z,82.3
2018-08-31T02:40:42.190Z,81.92
2018-08-31T02:41:22.796Z,82.49
2018-08-31T02:42:03.353Z,82.49
2018-08-31T02:42:43.919Z,82.68
2018-08-31T02:43:24.475Z,83.36
2018-08-31T02:44:05.028Z,83.45
2018-08-31T02:44:45.601Z,83.54
2018-08-31T02:45:26.170Z,83.54
2018-08-31T02:46:06.715Z,83.26
2018-08-31T02:46:47.310Z,83.54
2018-08-31T02:47:27.872Z,83.26
2018-08-31T02:48:08.445Z,83.26
2018-08-31T02:48:49.041Z,83.16
2018-08-31T02:49:29.619Z,83.36
2018-08-31T02:50:10.179Z,83.54
2018-08-31T02:50:50.741Z,83.64
2018-08-31T02:51:31.313Z,83.45
2018-08-31T02:52:11.873Z,83.26
2018-08-31T02:52:52.441Z,83.26
2018-08-31T02:53:33.008Z,83.45
2018-08-31T02:54:13.585Z,82.68
2018-08-31T02:54:54.167Z,83.16
2018-08-31T02:55:34.741Z,83.06
2018-08-31T02:56:15.304Z,82.97
2018-08-31T02:56:55.886Z,82.87
2018-08-31T02:57:36.455Z,83.45
2018-08-31T02:58:17.018Z,83.26
2018-08-31T02:58:57.576Z,83.36
2018-08-31T02:59:38.156Z,83.45
2018-08-31T03:00:18.732Z,83.06
2018-08-31T03:00:59.293Z,83.45
2018-08-31T03:01:39.905Z,83.16
2018-08-31T03:02:20.479Z,83.06
2018-08-31T03:03:01.093Z,83.36
2018-08-31T03:03:41.664Z,83.36
2018-08-31T03:04:22.246Z,83.45
2018-08-31T03:05:02.821Z,83.26
2018-08-31T03:05:43.415Z,83.73
2018-08-31T03:06:23.984Z,83.64
2018-08-31T03:07:04.550Z,83.64
2018-08-31T03:07:45.097Z,83.45
2018-08-31T03:08:25.655Z,83.36
2018-08-31T03:09:06.224Z,83.54
2018-08-31T03:09:46.799Z,83.36
2018-08-31T03:10:27.361Z,83.26
2018-08-31T03:11:07.912Z,83.54
2018-08-31T03:11:48.479Z,83.26
2018-08-31T03:12:29.040Z,82.97
2018-08-31T03:13:09.601Z,83.64
2018-08-31T03:13:50.174Z,83.45
2018-08-31T03:14:30.749Z,83.16
2018-08-31T03:15:11.359Z,83.31
2018-08-31T03:15:51.914Z,83.89
2018-08-31T03:16:32.474Z,83.93
2018-08-31T03:17:13.037Z,83.89
2018-08-31T03:17:53.634Z,83.93
2018-08-31T03:18:34.207Z,83.5
2018-08-31T03:19:14.785Z,84.31
2018-08-31T03:19:55.350Z,84.22
2018-08-31T03:20:35.904Z,83.83
2018-08-31T03:21:16.479Z,83.5
2018-08-31T03:21:57.099Z,84.02
2018-08-31T03:22:37.670Z,83.5
2018-08-31T03:23:18.231Z,83.73
2018-08-31T03:23:58.787Z,83.4
2018-08-31T03:24:39.355Z,83.69
2018-08-31T03:25:19.940Z,83.6
2018-08-31T03:26:00.503Z,83.83
2018-08-31T03:26:41.070Z,84.36
2018-08-31T03:27:21.639Z,84.27
2018-08-31T03:28:02.203Z,83.79
2018-08-31T03:28:42.765Z,83.4
2018-08-31T03:29:23.327Z,83.5
2018-08-31T03:30:03.930Z,83.73
2018-08-31T03:30:44.481Z,84.22
2018-08-31T03:31:25.102Z,84.27
2018-08-31T03:32:05.640Z,84.02
2018-08-31T03:32:46.212Z,83.5
2018-08-31T03:33:26.782Z,83.98
2018-08-31T03:34:07.347Z,83.22
2018-08-31T03:34:47.905Z,83.22
2018-08-31T03:35:28.471Z,83.31
2018-08-31T03:36:09.029Z,83.89
2018-08-31T03:36:49.611Z,83.69
2018-08-31T03:37:30.167Z,83.5
2018-08-31T03:38:10.725Z,84.17
2018-08-31T03:38:51.285Z,84.27
2018-08-31T03:39:31.847Z,84.17
2018-08-31T03:40:12.407Z,84.08
2018-08-31T03:40:52.981Z,84.17
2018-08-31T03:41:33.544Z,84.17
2018-08-31T03:42:14.104Z,83.89
2018-08-31T03:42:54.670Z,84.17
2018-08-31T03:43:35.265Z,84.17
2018-08-31T03:44:15.832Z,84.17
2018-08-31T03:44:56.413Z,84.08
2018-08-31T03:45:36.976Z,84.17
2018-08-31T03:46:17.532Z,83.98
2018-08-31T03:46:58.124Z,84.08
2018-08-31T03:47:38.710Z,84.36
2018-08-31T03:48:19.315Z,84.17
2018-08-31T03:48:59.906Z,84.08
2018-08-31T03:49:40.480Z,83.89
2018-08-31T03:50:21.027Z,84.17
2018-08-31T03:51:01.586Z,83.89
2018-08-31T03:51:42.195Z,84.17
2018-08-31T03:52:22.756Z,84.27
2018-08-31T03:53:03.311Z,84.65
2018-08-31T03:53:43.891Z,84.36
2018-08-31T03:54:24.504Z,84.46
2018-08-31T03:55:05.141Z,84.55
2018-08-31T03:55:45.718Z,84.55
2018-08-31T03:56:26.273Z,84.36
2018-08-31T03:57:06.839Z,84.17
2018-08-31T03:57:47.393Z,84.08
2018-08-31T03:58:27.960Z,84.36
2018-08-31T03:59:08.523Z,84.36
2018-08-31T03:59:49.135Z,84.08
2018-08-31T04:00:29.699Z,84.36
2018-08-31T04:01:10.256Z,83.6
2018-08-31T04:01:50.850Z,83.89
2018-08-31T04:02:31.629Z,84.46
2018-08-31T04:03:12.194Z,84.36
2018-08-31T04:03:52.752Z,83.89
2018-08-31T04:04:33.309Z,84.36
2018-08-31T04:05:13.855Z,83.79
2018-08-31T04:05:54.438Z,83.69
2018-08-31T04:06:35.007Z,84.08
2018-08-31T04:07:15.595Z,84.27
2018-08-31T04:07:56.253Z,84.46
2018-08-31T04:08:36.807Z,84.55
2018-08-31T04:09:17.388Z,84.46
2018-08-31T04:09:58.005Z,84.55
2018-08-31T04:10:38.550Z,84.75
2018-08-31T04:11:19.189Z,84.27
2018-08-31T04:11:59.798Z,84.75
2018-08-31T04:12:40.336Z,84.84
2018-08-31T04:13:20.877Z,84.55
2018-08-31T04:14:01.453Z,85.03
2018-08-31T04:14:41.997Z,85.03
2018-08-31T04:15:22.622Z,84.94
2018-08-31T04:16:03.186Z,84.94
2018-08-31T04:16:43.753Z,84.94
2018-08-31T04:17:24.363Z,84.75
2018-08-31T04:18:04.935Z,84.55
2018-08-31T04:18:45.502Z,84.75
2018-08-31T04:19:26.055Z,84.94
2018-08-31T04:20:06.621Z,84.36
2018-08-31T04:20:47.223Z,84.36
2018-08-31T04:21:27.792Z,84.84
2018-08-31T04:22:08.379Z,84.75
2018-08-31T04:22:48.952Z,84.75
2018-08-31T04:23:29.516Z,84.55
2018-08-31T04:24:10.075Z,84.75
2018-08-31T04:24:50.685Z,84.75
2018-08-31T04:25:31.248Z,84.84
2018-08-31T04:26:11.823Z,84.46
2018-08-31T04:26:52.426Z,84.94
2018-08-31T04:27:33.022Z,84.75
2018-08-31T04:28:13.593Z,84.75
2018-08-31T04:28:54.158Z,84.65
2018-08-31T04:29:34.716Z,84.65
2018-08-31T04:30:15.310Z,84.84
2018-08-31T04:30:55.889Z,84.84
2018-08-31T04:31:36.449Z,84.65
2018-08-31T04:32:17.008Z,84.65
2018-08-31T04:32:57.578Z,84.65
2018-08-31T04:33:38.129Z,84.84
2018-08-31T04:34:20.519Z,84.84
2018-08-31T04:35:01.094Z,84.84
2018-08-31T04:35:41.658Z,84.36
2018-08-31T04:36:22.288Z,84.65
2018-08-31T04:37:02.852Z,84.27
2018-08-31T04:37:43.440Z,84.08
2018-08-31T04:38:24.047Z,84.75
2018-08-31T04:39:04.654Z,84.46
2018-08-31T04:39:45.251Z,84.36
2018-08-31T04:40:25.808Z,85.22
2018-08-31T04:41:06.372Z,86.57
2018-08-31T04:41:46.959Z,88.29
2018-08-31T04:42:27.548Z,88.57
2018-08-31T04:43:08.111Z,89.48
2018-08-31T04:43:48.677Z,88.71
2018-08-31T04:44:29.261Z,87.27
2018-08-31T04:45:09.830Z,86.13
2018-08-31T04:45:50.400Z,85.94
2018-08-31T04:46:30.951Z,86.8
2018-08-31T04:47:11.538Z,86.61
2018-08-31T04:47:52.139Z,86.22
2018-08-31T04:48:32.689Z,84.83
2018-08-31T04:49:13.253Z,84.74
2018-08-31T04:49:53.865Z,84.55
2018-08-31T04:50:34.435Z,84.92
2018-08-31T04:51:15.012Z,84.83
2018-08-31T04:51:55.576Z,84.64
2018-08-31T04:52:36.147Z,84.45
2018-08-31T04:53:16.699Z,83.87
2018-08-31T04:53:57.263Z,84.45
2018-08-31T04:54:37.837Z,84.16
2018-08-31T04:55:18.391Z,84.26
2018-08-31T04:55:58.975Z,83.3
2018-08-31T04:56:39.542Z,82.82
2018-08-31T04:57:20.101Z,83.01
2018-08-31T04:58:00.689Z,82.76
2018-08-31T04:58:41.290Z,81.57
2018-08-31T04:59:21.829Z,80.85
2018-08-31T05:00:02.420Z,80.18
2018-08-31T05:00:43.002Z,81.04
2018-08-31T05:01:23.558Z,80.81
2018-08-31T05:02:04.131Z,81.62
2018-08-31T05:02:44.681Z,80.76
2018-08-31T05:03:25.236Z,80.18
2018-08-31T05:04:05.820Z,80.08
2018-08-31T05:04:46.473Z,79.89
2018-08-31T05:05:27.033Z,80.08
2018-08-31T05:06:07.606Z,79.8
2018-08-31T05:06:48.135Z,80.18
2018-08-31T05:07:28.713Z,80.08
2018-08-31T05:08:09.318Z,80.47
2018-08-31T05:08:49.886Z,79.51
2018-08-31T05:09:30.454Z,78.84
2018-08-31T05:10:11.018Z,78.45
2018-08-31T05:10:51.582Z,78.55
2018-08-31T05:11:32.163Z,79.32
2018-08-31T05:12:12.736Z,79.32
2018-08-31T05:12:53.291Z,79.6
2018-08-31T05:13:33.873Z,79.6
2018-08-31T05:14:14.390Z,79.32
2018-08-31T05:14:54.957Z,78.74
2018-08-31T05:15:35.521Z,77.88
2018-08-31T05:16:16.185Z,78.17
2018-08-31T05:16:56.713Z,78.17
2018-08-31T05:17:37.327Z,78.55
2018-08-31T05:18:17.903Z,78.74
2018-08-31T05:18:58.454Z,78.27
2018-08-31T05:19:39.008Z,77.59
2018-08-31T05:20:19.573Z,77.5
2018-08-31T05:21:00.125Z,77.31
2018-08-31T05:21:40.688Z,76.54
2018-08-31T05:22:21.324Z,76.64
2018-08-31T05:23:01.885Z,77.31
2018-08-31T05:23:42.394Z,76.92
2018-08-31T05:24:22.951Z,77.11
2018-08-31T05:25:03.521Z,77.4
2018-08-31T05:25:44.165Z,78.64
2018-08-31T05:26:24.692Z,78.45
2018-08-31T05:27:05.320Z,78.64
2018-08-31T05:27:45.892Z,78.93
2018-08-31T05:28:26.533Z,78.45
2018-08-31T05:29:07.084Z,78.55
2018-08-31T05:29:47.643Z,78.55
2018-08-31T05:30:28.226Z,77.4
2018-08-31T05:31:08.846Z,77.59
2018-08-31T05:31:49.421Z,77.21
2018-08-31T05:32:29.990Z,76.64
2018-08-31T05:33:10.561Z,76.54
2018-08-31T05:33:51.125Z,76.64
2018-08-31T05:34:31.666Z,76.64
2018-08-31T05:35:12.225Z,76.89
2018-08-31T05:35:52.788Z,76.6
2018-08-31T05:36:33.381Z,76.82
2018-08-31T05:37:14.000Z,77.26
2018-08-31T05:37:54.668Z,77.75
2018-08-31T05:38:35.284Z,77.75
2018-08-31T05:39:15.813Z,78.22
2018-08-31T05:39:56.369Z,78.42
2018-08-31T05:40:36.943Z,78.99
2018-08-31T05:41:17.507Z,78.61
2018-08-31T05:41:58.060Z,78.7
2018-08-31T05:42:38.641Z,78.51
2018-08-31T05:43:19.193Z,78.51
2018-08-31T05:43:59.756Z,78.89
2018-08-31T05:44:40.329Z,78.51
2018-08-31T05:45:20.884Z,78.7
2018-08-31T05:46:01.457Z,78.51
2018-08-31T05:46:42.023Z,79.47
2018-08-31T05:47:22.543Z,79.08
2018-08-31T05:48:03.128Z,79.28
2018-08-31T05:48:43.725Z,79.18
2018-08-31T05:49:24.673Z,79.95
2018-08-31T05:50:05.238Z,79.57
2018-08-31T05:50:45.798Z,79.37
2018-08-31T05:51:26.358Z,79.57
2018-08-31T05:52:06.911Z,79.18
2018-08-31T05:52:47.461Z,79.28
2018-08-31T05:53:28.057Z,79.28
2018-08-31T05:54:08.635Z,79.18
2018-08-31T05:54:49.196Z,78.89
2018-08-31T05:55:29.762Z,78.89
2018-08-31T05:56:10.334Z,79.37
2018-08-31T05:56:50.930Z,79.18
2018-08-31T05:57:31.491Z,79.95
2018-08-31T05:58:12.080Z,79.43
2018-08-31T05:58:52.651Z,79.66
2018-08-31T05:59:33.212Z,79.47
2018-08-31T06:00:13.898Z,79.57
2018-08-31T06:00:54.499Z,79.81
2018-08-31T06:01:35.173Z,79.66
2018-08-31T06:02:15.840Z,79.66
2018-08-31T06:02:56.262Z,79.85
2018-08-31T06:03:36.842Z,79.66
2018-08-31T06:04:17.406Z,79.57
2018-08-31T06:04:57.968Z,79.57
2018-08-31T06:05:38.528Z,79.81
2018-08-31T06:06:19.092Z,79.75
2018-08-31T06:06:59.660Z,79.66
2018-08-31T06:07:40.234Z,79.66
2018-08-31T06:08:20.820Z,80.14
2018-08-31T06:09:01.377Z,79.57
2018-08-31T06:09:41.938Z,80
2018-08-31T06:10:22.513Z,79.66
2018-08-31T06:11:03.091Z,79.66
2018-08-31T06:11:43.655Z,79.28
2018-08-31T06:12:24.239Z,79.81
2018-08-31T06:13:04.808Z,79.95
2018-08-31T06:13:45.373Z,79.85
2018-08-31T06:14:25.938Z,79.95
2018-08-31T06:15:06.524Z,79.85
2018-08-31T06:15:47.076Z,79.91
2018-08-31T06:16:27.650Z,79.66
2018-08-31T06:17:08.438Z,79.18
2018-08-31T06:17:49.062Z,80
2018-08-31T06:18:29.593Z,79.43
2018-08-31T06:19:10.152Z,79.24
2018-08-31T06:19:50.690Z,79.05
2018-08-31T06:20:31.356Z,79.43
2018-08-31T06:21:12.069Z,79.62
2018-08-31T06:21:52.513Z,80.04
2018-08-31T06:22:33.802Z,80.04
2018-08-31T06:23:14.298Z,79.81
2018-08-31T06:23:55.028Z,80.1
2018-08-31T06:24:35.983Z,80.43
2018-08-31T06:25:16.961Z,80.1
2018-08-31T06:25:57.771Z,80.04
2018-08-31T06:26:38.425Z,79.66
2018-08-31T06:27:19.458Z,80.14
2018-08-31T06:28:02.470Z,79.85
2018-08-31T06:28:43.078Z,80.24
2018-08-31T06:29:23.655Z,80.33
2018-08-31T06:30:04.217Z,80.14
2018-08-31T06:30:44.772Z,80.24
2018-08-31T06:31:25.356Z,80.04
2018-08-31T06:32:05.940Z,79.37
2018-08-31T06:32:46.661Z,79.37
2018-08-31T06:33:27.188Z,79.91
2018-08-31T06:34:08.046Z,79.91
2018-08-31T06:34:48.681Z,80.14
2018-08-31T06:35:29.280Z,80.14
2018-08-31T06:36:09.892Z,80.52
2018-08-31T06:36:50.470Z,79.95
2018-08-31T06:37:31.136Z,80.1
2018-08-31T06:38:11.852Z,79.95
2018-08-31T06:38:52.483Z,79.95
2018-08-31T06:39:33.053Z,80.43
2018-08-31T06:40:13.696Z,80.24
2018-08-31T06:40:54.400Z,80.52
2018-08-31T06:41:34.923Z,79.85
2018-08-31T06:42:15.465Z,79.75
2018-08-31T06:42:56.043Z,79.37
2018-08-31T06:43:36.700Z,78.7
2018-08-31T06:44:17.371Z,79.32
2018-08-31T06:44:57.963Z,78.55
2018-08-31T06:45:38.548Z,78.74
2018-08-31T06:46:19.159Z,78.74
2018-08-31T06:46:59.812Z,78.74
2018-08-31T06:47:40.382Z,78.55
2018-08-31T06:48:20.956Z,78.84
2018-08-31T06:49:01.628Z,78.55
2018-08-31T06:49:42.206Z,78.93
2018-08-31T06:50:22.800Z,78.64
2018-08-31T06:51:03.445Z,78.45
2018-08-31T06:51:43.990Z,78.64
2018-08-31T06:52:24.569Z,78.45
2018-08-31T06:53:05.173Z,78.55
2018-08-31T06:53:45.889Z,78.17
2018-08-31T06:54:26.468Z,77.59
2018-08-31T06:55:07.103Z,77.78
2018-08-31T06:55:47.685Z,78.07
2018-08-31T06:56:28.333Z,78.07
2018-08-31T06:57:08.924Z,77.59
2018-08-31T06:57:49.465Z,78.07
2018-08-31T06:58:30.059Z,78.36
2018-08-31T06:59:10.630Z,78.45
2018-08-31T06:59:51.197Z,78.27
2018-08-31T07:00:32.077Z,77.5
2018-08-31T07:01:12.700Z,78.17
2018-08-31T07:01:53.313Z,78.07
2018-08-31T07:02:33.920Z,78.07
2018-08-31T07:03:14.932Z,78.27
2018-08-31T07:03:55.658Z,78.27
2018-08-31T07:04:36.463Z,77.78
2018-08-31T07:05:17.087Z,78.45
2018-08-31T07:05:57.743Z,78.27
2018-08-31T07:06:38.540Z,78.45
2018-08-31T07:07:19.066Z,77.78
2018-08-31T07:07:59.647Z,78.07
2018-08-31T07:08:40.277Z,77.97
2018-08-31T07:09:20.935Z,78.64
2018-08-31T07:10:01.480Z,78.55
2018-08-31T07:10:42.096Z,77.88
2018-08-31T07:11:22.834Z,77.69
2018-08-31T07:12:03.506Z,77.78
2018-08-31T07:12:44.194Z,78.17
2018-08-31T07:13:24.838Z,77.78
2018-08-31T07:14:05.427Z,78.55
2018-08-31T07:14:46.005Z,78.64
2018-08-31T07:15:26.691Z,78.55
2018-08-31T07:16:07.309Z,78.84
2018-08-31T07:16:47.966Z,78.93
2018-08-31T07:17:28.752Z,78.55
2018-08-31T07:18:09.391Z,78.45
2018-08-31T07:18:49.945Z,78.64
2018-08-31T07:19:30.577Z,79.03
2018-08-31T07:20:11.138Z,78.84
2018-08-31T07:20:51.781Z,79.6
2018-08-31T07:21:32.527Z,78.74
2018-08-31T07:22:13.215Z,79.32
2018-08-31T07:22:53.877Z,79.41
2018-08-31T07:23:34.606Z,79.22
2018-08-31T07:24:15.102Z,79.32
2018-08-31T07:24:55.688Z,79.32
2018-08-31T07:25:36.319Z,79.03
2018-08-31T07:26:16.925Z,78.74
2018-08-31T07:26:57.727Z,79.41
2018-08-31T07:27:38.156Z,79.32
2018-08-31T07:28:18.755Z,79.6
2018-08-31T07:28:59.368Z,79.7
2018-08-31T07:29:39.942Z,80.08
2018-08-31T07:30:20.561Z,80.08
2018-08-31T07:31:01.094Z,79.89
2018-08-31T07:31:41.659Z,80.18
2018-08-31T07:32:22.209Z,80.18
2018-08-31T07:33:02.808Z,79.89
2018-08-31T07:33:43.370Z,79.89
2018-08-31T07:34:23.933Z,79.8
2018-08-31T07:35:04.493Z,79.99
2018-08-31T07:35:45.079Z,79.99
2018-08-31T07:36:25.660Z,80.08
2018-08-31T07:37:06.197Z,79.99
2018-08-31T07:37:46.747Z,80.47
2018-08-31T07:38:27.379Z,79.89
2018-08-31T07:39:07.935Z,80.18
2018-08-31T07:39:48.485Z,80.56
2018-08-31T07:40:29.045Z,80.18
2018-08-31T07:41:09.602Z,80.08
2018-08-31T07:41:50.165Z,79.89
2018-08-31T07:42:30.725Z,79.8
2018-08-31T07:43:11.291Z,80.37
2018-08-31T07:43:51.854Z,79.89
2018-08-31T07:44:32.421Z,79.6
2018-08-31T07:45:12.981Z,79.41
2018-08-31T07:45:53.549Z,79.22
2018-08-31T07:46:34.114Z,79.41
2018-08-31T07:47:14.677Z,79.32
2018-08-31T07:47:55.346Z,79.7
2018-08-31T07:48:35.828Z,79.41
2018-08-31T07:49:16.384Z,79.32
2018-08-31T07:49:57.026Z,79.41
2018-08-31T07:50:37.650Z,79.99
2018-08-31T07:51:18.218Z,79.7
2018-08-31T07:51:58.793Z,80.18
2018-08-31T07:52:39.373Z,80.08
2018-08-31T07:53:19.936Z,80.18
2018-08-31T07:54:00.550Z,79.89
2018-08-31T07:54:41.061Z,80.18
2018-08-31T07:55:21.669Z,79.32
2018-08-31T07:56:02.264Z,79.51
2018-08-31T07:56:42.831Z,79.99
2018-08-31T07:57:23.407Z,79.99
2018-08-31T07:58:04.008Z,79.8
2018-08-31T07:58:44.588Z,79.99
2018-08-31T07:59:25.147Z,79.6
2018-08-31T08:00:05.710Z,79.32
2018-08-31T08:00:46.261Z,78.55
2018-08-31T08:01:26.825Z,78.45
2018-08-31T08:02:07.400Z,78.64
2018-08-31T08:02:47.970Z,79.51
2018-08-31T08:03:28.549Z,79.13
2018-08-31T08:04:09.123Z,79.22
2018-08-31T08:04:49.668Z,78.55
2018-08-31T08:05:30.270Z,78.74
2018-08-31T08:06:10.810Z,78.36
2018-08-31T08:06:51.420Z,78.55
2018-08-31T08:07:32.088Z,78.93
2018-08-31T08:08:12.565Z,78.55
